San Juan Clipper — WDH9703 — position and weather

sailwx.info

Track history (hours):
 
Tides and Currents Weather Stations Pressure Air Temp Water Temp Dewpoint Dewpoint Depression Visibility Wind Speed Wind Dir Waves Ship Positions

San Juan Clipper

Owner: Clipper Navigation Inc., Seattle, WA. More information available from US FCC via Universal Licensing System and Coast Guard Vessel Documentation Center.

Last reported at 2018-Jul-16 19:00 UTC. Time now 2018-Jul-17 17:20 UTC.
Position N 47°40' W 122°23'.

Length 26 m; draft 1 m.

Type: Passenger vessel. MMSI: 366902890.

Date/timePositionNaut miles runAvg speedWind from/ knotsBaromVisibWave heightAir tempDewpointWater temp
2018-Jul-16 19:00N 47°40' W 122°23'0 0.5
2018-Jul-16 18:29N 47°40' W 122°24'0 0.1
2018-Jul-16 17:59N 47°40' W 122°24'2 4.0
2018-Jul-16 17:30N 47°40' W 122°27'5 9.5
2018-Jul-16 17:00N 47°37' W 122°21'0 0.0
2018-Jul-16 16:30N 47°37' W 122°21'0 0.0
2018-Jul-16 16:00N 47°37' W 122°21'0 0.0
2018-Jul-16 15:30N 47°37' W 122°21'0 0.0
2018-Jul-16 08:40N 47°37' W 122°21'0 0.2
2018-Jul-16 08:29N 47°37' W 122°21'0 0.2
2018-Jul-16 08:00N 47°37' W 122°21'5 9.3
2018-Jul-16 07:30N 47°40' W 122°27'611.5
2018-Jul-16 07:00N 47°45' W 122°27'611.6
2018-Jul-16 06:30N 47°51' W 122°29'510.6
2018-Jul-16 06:00N 47°56' W 122°33'2910.9
2018-Jul-16 03:19N 48°21' W 122°54'412.6
2018-Jul-16 03:00N 48°25' W 122°56'510.4
2018-Jul-16 02:30N 48°30' W 122°57'3 6.2
2018-Jul-16 02:00N 48°32' W 123°01'0 0.0
2018-Jul-16 01:30N 48°32' W 123°01'0 0.1
2018-Jul-16 00:57N 48°32' W 123°01'2 5.0
2018-Jul-16 00:31N 48°32' W 122°58'2 3.7
2018-Jul-15 23:55N 48°32' W 123°01'0 0.0
2018-Jul-15 23:25N 48°32' W 123°01'0 0.0
2018-Jul-15 22:49N 48°32' W 123°01'0 0.0
2018-Jul-15 22:25N 48°32' W 123°01'0 0.0
2018-Jul-15 21:58N 48°32' W 123°01'4 8.6
2018-Jul-15 21:30N 48°36' W 123°04'816.4
2018-Jul-15 21:00N 48°40' W 123°14'3 5.6
2018-Jul-15 20:30N 48°38' W 123°12'3 6.3
2018-Jul-15 20:00N 48°38' W 123°08'714.1
2018-Jul-15 19:30N 48°32' W 123°01'1 1.5
2018-Jul-15 19:00N 48°33' W 122°60'917.9
2018-Jul-15 18:30N 48°25' W 122°53'2715.4
2018-Jul-15 16:47N 48°05' W 122°27'721.4
2018-Jul-15 16:28N 47°60' W 122°21'1021.3
2018-Jul-15 16:01N 47°50' W 122°24'1123.0
2018-Jul-15 15:31N 47°39' W 122°26'4 7.4
2018-Jul-15 14:58N 47°37' W 122°21'0 0.0
2018-Jul-15 14:25N 47°37' W 122°21'0 0.0
2018-Jul-15 13:58N 47°37' W 122°21'0 0.0
2018-Jul-15 04:06N 47°37' W 122°21'0 1.2
2018-Jul-15 04:00N 47°37' W 122°21'1 1.8
2018-Jul-15 03:31N 47°36' W 122°21'1 2.1
2018-Jul-15 03:01N 47°37' W 122°22'1121.2
2018-Jul-15 02:30N 47°47' W 122°27'1020.7
2018-Jul-15 02:00N 47°56' W 122°33'2323.8
2018-Jul-15 01:02N 48°18' W 122°48'222.1
2018-Jul-15 00:57N 48°19' W 122°49'1022.1
2018-Jul-15 00:30N 48°27' W 122°57'611.2
2018-Jul-15 00:00N 48°32' W 123°01'0 0.0
2018-Jul-14 23:30N 48°32' W 123°01'0 0.0
2018-Jul-14 23:00N 48°32' W 123°01'0 0.0
2018-Jul-14 22:30N 48°32' W 123°01'0 0.0
2018-Jul-14 21:45N 48°32' W 123°01'2 8.3
2018-Jul-14 21:30N 48°32' W 122°58'813.8
2018-Jul-14 20:58N 48°25' W 123°01'1 1.6
2018-Jul-14 20:30N 48°25' W 123°02'815.8
2018-Jul-14 20:01N 48°33' W 122°60'1 1.0
2018-Jul-14 19:30N 48°33' W 123°00'816.6
2018-Jul-14 19:00N 48°25' W 122°54'2912.3
2018-Jul-14 16:40N 48°04' W 122°25'420.8
2018-Jul-14 16:28N 48°01' W 122°21'1020.9
2018-Jul-14 16:01N 47°51' W 122°23'1223.1
2018-Jul-14 15:31N 47°40' W 122°27'5 9.3
2018-Jul-14 14:59N 47°37' W 122°21'0 0.0
2018-Jul-14 14:26N 47°37' W 122°21'2 1.6
2018-Jul-14 13:29N 47°35' W 122°21'2 0.1
2018-Jul-14 03:12N 47°37' W 122°21'0 0.0
2018-Jul-14 03:00N 47°37' W 122°21'815.9
2018-Jul-14 02:31N 47°44' W 122°27'1224.0
2018-Jul-14 02:01N 47°55' W 122°31'2823.6
2018-Jul-14 00:49N 48°20' W 122°50'824.1
2018-Jul-14 00:31N 48°26' W 122°57'711.4
2018-Jul-13 23:56N 48°32' W 123°01'0 0.0
2018-Jul-13 23:29N 48°32' W 123°01'0 0.0
2018-Jul-13 22:59N 48°32' W 123°01'0 0.0
2018-Jul-13 22:29N 48°32' W 123°01'0 0.0
2018-Jul-13 21:59N 48°32' W 123°01'1 1.5
2018-Jul-13 21:31N 48°33' W 123°00'816.3
2018-Jul-13 21:00N 48°25' W 123°02'1 2.6
2018-Jul-13 20:30N 48°25' W 123°00'2 4.7
2018-Jul-13 20:00N 48°26' W 122°57'612.2
2018-Jul-13 19:30N 48°32' W 123°01'1 2.8
2018-Jul-13 19:00N 48°33' W 122°59'917.1
2018-Jul-13 18:30N 48°31' W 122°46'2917.2
2018-Jul-13 16:48N 48°05' W 122°26'719.7
2018-Jul-13 16:28N 47°59' W 122°20'920.8
2018-Jul-13 16:00N 47°50' W 122°24'1223.3
2018-Jul-13 15:30N 47°39' W 122°26'4 7.8
2018-Jul-13 14:59N 47°37' W 122°21'0 0.0
2018-Jul-13 14:29N 47°37' W 122°21'1 1.4
2018-Jul-13 13:30N 47°35' W 122°21'1 0.1
2018-Jul-13 03:20N 47°37' W 122°21'0 0.7
2018-Jul-13 03:00N 47°37' W 122°22'1020.1
2018-Jul-13 02:30N 47°46' W 122°27'1424.5
2018-Jul-13 01:56N 47°59' W 122°36'2423.9
2018-Jul-13 00:56N 48°20' W 122°51'714.2
2018-Jul-13 00:28N 48°25' W 122°58'816.3
2018-Jul-13 00:00N 48°32' W 123°01'0 0.2
2018-Jul-12 23:29N 48°32' W 123°01'0 0.0
2018-Jul-12 22:26N 48°32' W 123°01'0 0.0
2018-Jul-12 21:59N 48°32' W 123°01'1 3.1
2018-Jul-12 21:30N 48°33' W 122°59'712.9
2018-Jul-12 20:59N 48°26' W 122°58'3 5.4
2018-Jul-12 20:30N 48°26' W 123°02'4 7.9
2018-Jul-12 20:00N 48°28' W 122°57'4 8.1
2018-Jul-12 19:28N 48°32' W 123°01'4 8.6
2018-Jul-12 19:00N 48°33' W 122°55'816.1
2018-Jul-12 18:30N 48°29' W 122°45'2817.0
2018-Jul-12 16:51N 48°04' W 122°25'720.5
2018-Jul-12 16:30N 47°58' W 122°20'917.4
2018-Jul-12 16:00N 47°50' W 122°24'1122.9
2018-Jul-12 15:30N 47°39' W 122°27'4 7.6
2018-Jul-12 14:59N 47°37' W 122°21'0 0.0
2018-Jul-12 14:29N 47°37' W 122°21'2 3.1
2018-Jul-12 14:00N 47°35' W 122°21'1 2.6
2018-Jul-12 13:30N 47°37' W 122°21'0 0.0
2018-Jul-12 03:35N 47°37' W 122°21'0 0.0
2018-Jul-12 03:29N 47°37' W 122°21'4 8.7
2018-Jul-12 03:00N 47°39' W 122°27'1223.8
2018-Jul-12 02:30N 47°51' W 122°28'3420.1
2018-Jul-12 00:49N 48°21' W 122°50'722.3
2018-Jul-12 00:30N 48°27' W 122°57'610.6
2018-Jul-11 23:56N 48°32' W 123°01'0 0.0
2018-Jul-11 23:29N 48°32' W 123°01'0 0.0
2018-Jul-11 22:59N 48°32' W 123°01'0 0.0
2018-Jul-11 22:29N 48°32' W 123°01'0 0.0
2018-Jul-11 21:59N 48°32' W 123°01'1 2.9
2018-Jul-11 21:30N 48°33' W 122°59'9 7.4
2018-Jul-11 20:19N 48°24' W 122°59'412.8
2018-Jul-11 20:00N 48°28' W 122°57'5 9.9
2018-Jul-11 19:29N 48°32' W 123°01'511.5
2018-Jul-11 19:01N 48°34' W 122°53'1019.8
2018-Jul-11 18:31N 48°27' W 122°43'2517.6
2018-Jul-11 17:06N 48°05' W 122°26'422.1
2018-Jul-11 16:54N 48°02' W 122°22'718.5
2018-Jul-11 16:30N 47°55' W 122°22'5 9.9
2018-Jul-11 16:00N 47°50' W 122°24'1223.0
2018-Jul-11 15:30N 47°38' W 122°26'4 7.1
2018-Jul-11 15:00N 47°37' W 122°21'0 0.4
2018-Jul-11 14:28N 47°37' W 122°21'1 2.7
2018-Jul-11 13:58N 47°35' W 122°21'1 3.2
2018-Jul-11 13:30N 47°37' W 122°21'0 0.0
2018-Jul-11 03:24N 47°37' W 122°21'2 4.6
2018-Jul-11 03:00N 47°37' W 122°24'1121.9
2018-Jul-11 02:30N 47°48' W 122°27'3420.4
2018-Jul-11 00:50N 48°19' W 122°49'719.8
2018-Jul-11 00:30N 48°24' W 122°55'917.6
2018-Jul-11 00:00N 48°32' W 123°01'0 0.2
2018-Jul-10 23:26N 48°32' W 123°01'0 0.0
2018-Jul-10 22:59N 48°32' W 123°01'0 0.0
2018-Jul-10 22:26N 48°32' W 123°01'0 0.0
2018-Jul-10 21:56N 48°32' W 123°01'615.0
2018-Jul-10 21:30N 48°38' W 123°06'713.0
2018-Jul-10 21:00N 48°39' W 123°16'3 5.8
2018-Jul-10 20:31N 48°37' W 123°14'1325.0
2018-Jul-10 20:00N 48°27' W 123°02'612.0
2018-Jul-10 19:30N 48°32' W 122°58'2 3.9
2018-Jul-10 19:00N 48°32' W 123°01'714.4
2018-Jul-10 18:30N 48°33' W 122°50'3218.2
2018-Jul-10 16:44N 48°05' W 122°26'722.8
2018-Jul-10 16:27N 47°59' W 122°20'921.0
2018-Jul-10 16:00N 47°50' W 122°24'1223.5
2018-Jul-10 15:30N 47°39' W 122°27'4 8.0
2018-Jul-10 15:00N 47°37' W 122°21'0 0.0
2018-Jul-10 14:30N 47°37' W 122°21'2 3.1
2018-Jul-10 14:00N 47°35' W 122°21'1 3.0
2018-Jul-10 13:31N 47°37' W 122°21'0 0.0
2018-Jul-10 04:08N 47°37' W 122°21'0 0.0
2018-Jul-10 03:59N 47°37' W 122°21'4 7.9
2018-Jul-10 03:30N 47°39' W 122°26'1223.9
2018-Jul-10 03:01N 47°50' W 122°22'815.6
2018-Jul-10 02:31N 47°58' W 122°20'3019.5
2018-Jul-10 00:59N 48°25' W 122°40'919.8
2018-Jul-10 00:30N 48°32' W 122°50'710.6
2018-Jul-09 23:50N 48°32' W 123°01'0 0.0
2018-Jul-09 23:29N 48°32' W 123°01'0 0.0
2018-Jul-09 22:56N 48°32' W 123°01'0 0.0
2018-Jul-09 22:29N 48°32' W 123°01'3 6.2
2018-Jul-09 22:00N 48°35' W 123°02'1121.8
2018-Jul-09 21:31N 48°42' W 123°15'3 5.9
2018-Jul-09 21:00N 48°44' W 123°11'3 5.2
2018-Jul-09 20:31N 48°41' W 123°09'3 5.9
2018-Jul-09 20:01N 48°39' W 123°09'816.6
2018-Jul-09 19:31N 48°33' W 123°00'1 1.0
2018-Jul-09 19:00N 48°32' W 123°01'715.0
2018-Jul-09 18:31N 48°32' W 122°50'3217.1
2018-Jul-09 16:40N 48°05' W 122°26'621.7
2018-Jul-09 16:24N 48°00' W 122°21'822.1
2018-Jul-09 16:00N 47°52' W 122°24'1224.0
2018-Jul-09 15:31N 47°40' W 122°27'510.0
2018-Jul-09 15:00N 47°37' W 122°21'0 0.0
2018-Jul-09 14:30N 47°37' W 122°21'0 0.4
2018-Jul-09 14:01N 47°37' W 122°21'1 2.3
2018-Jul-09 13:30N 47°36' W 122°21'1 0.1
2018-Jul-09 03:20N 47°37' W 122°21'2 6.4
2018-Jul-09 03:00N 47°37' W 122°24'1121.2
2018-Jul-09 02:31N 47°48' W 122°27'1322.8
2018-Jul-09 01:58N 47°59' W 122°36'2122.2
2018-Jul-09 01:01N 48°18' W 122°49'023.6
2018-Jul-09 00:59N 48°18' W 122°49'1019.8
2018-Jul-09 00:30N 48°26' W 122°57'612.3
2018-Jul-09 00:00N 48°32' W 123°01'0 0.0
2018-Jul-08 23:30N 48°32' W 123°01'613.3
2018-Jul-08 23:00N 48°39' W 123°02'10 9.1
2018-Jul-08 21:52N 48°49' W 123°02'821.6
2018-Jul-08 21:30N 48°41' W 123°00'917.4
2018-Jul-08 21:00N 48°32' W 123°01'0 0.0
2018-Jul-08 20:30N 48°32' W 123°01'0 0.0
2018-Jul-08 20:00N 48°32' W 123°01'0 0.0
2018-Jul-08 19:30N 48°32' W 123°01'0 0.0
2018-Jul-08 18:58N 48°32' W 123°01'714.5
2018-Jul-08 18:31N 48°34' W 122°51'3318.7
2018-Jul-08 16:43N 48°05' W 122°26'722.5
2018-Jul-08 16:26N 47°60' W 122°21'922.3
2018-Jul-08 16:01N 47°51' W 122°25'1223.5
2018-Jul-08 15:31N 47°39' W 122°27'4 6.2
2018-Jul-08 14:50N 47°37' W 122°21'0 0.0
2018-Jul-08 14:26N 47°37' W 122°21'0 0.0
2018-Jul-08 13:56N 47°37' W 122°21'0 0.0
2018-Jul-08 03:59N 47°37' W 122°21'2 3.2
2018-Jul-08 03:30N 47°35' W 122°21'2 2.9
2018-Jul-08 02:58N 47°37' W 122°21'816.3
2018-Jul-08 02:31N 47°43' W 122°28'1224.0
2018-Jul-08 02:01N 47°55' W 122°31'2723.2
2018-Jul-08 00:51N 48°19' W 122°49'823.7
2018-Jul-08 00:30N 48°25' W 122°56'812.2
2018-Jul-07 23:53N 48°32' W 123°01'0 0.0
2018-Jul-07 23:29N 48°32' W 123°01'0 0.0
2018-Jul-07 22:59N 48°32' W 123°01'0 0.0
2018-Jul-07 22:29N 48°32' W 123°01'0 0.0
2018-Jul-07 21:59N 48°32' W 123°01'0 1.0
2018-Jul-07 21:31N 48°33' W 123°01'1122.7
2018-Jul-07 21:00N 48°42' W 123°11'4 7.6
2018-Jul-07 20:30N 48°44' W 123°15'2 3.4
2018-Jul-07 20:00N 48°45' W 123°18'1223.3
2018-Jul-07 19:30N 48°37' W 123°05'510.6
2018-Jul-07 19:00N 48°32' W 123°01'510.9
2018-Jul-07 18:31N 48°34' W 122°54'1121.0
2018-Jul-07 17:59N 48°26' W 122°42'2418.0
2018-Jul-07 16:39N 48°05' W 122°26'623.9
2018-Jul-07 16:25N 48°01' W 122°21'923.0
2018-Jul-07 16:00N 47°51' W 122°23'1224.1
2018-Jul-07 15:31N 47°39' W 122°27'5 8.8
2018-Jul-07 15:00N 47°37' W 122°21'0 0.5
2018-Jul-07 14:30N 47°37' W 122°22'1 2.9
2018-Jul-07 14:00N 47°35' W 122°21'2 2.8
2018-Jul-07 13:28N 47°37' W 122°21'0 0.0
2018-Jul-07 03:22N 47°37' W 122°21'1 2.5
2018-Jul-07 03:00N 47°37' W 122°23'918.5
2018-Jul-07 02:30N 47°46' W 122°27'1122.6
2018-Jul-07 02:00N 47°56' W 122°33'2422.2
2018-Jul-07 00:55N 48°18' W 122°49'921.7
2018-Jul-07 00:30N 48°26' W 122°56'815.1
2018-Jul-07 00:00N 48°32' W 123°01'0 0.3
2018-Jul-06 23:30N 48°32' W 123°01'0 0.0
2018-Jul-06 23:01N 48°32' W 123°01'0 0.0
2018-Jul-06 22:30N 48°32' W 123°01'0 0.0
2018-Jul-06 21:55N 48°32' W 123°01'1 3.4
2018-Jul-06 21:30N 48°34' W 123°00'1222.3
2018-Jul-06 20:59N 48°45' W 123°04'3 3.0
2018-Jul-06 20:07N 48°47' W 123°02'217.1
2018-Jul-06 19:59N 48°45' W 123°03'1122.2
2018-Jul-06 19:30N 48°35' W 123°01'3 5.1
2018-Jul-06 19:00N 48°32' W 123°01'  
Track history (hours):
 
Tides and Currents Weather Stations Pressure Air Temp Water Temp Dewpoint Dewpoint Depression Visibility Wind Speed Wind Dir Waves Ship Positions

San Juan Clipper

Owner: Clipper Navigation Inc., Seattle, WA. More information available from US FCC via Universal Licensing System and Coast Guard Vessel Documentation Center.

Last reported at 2018-Jul-16 19:00 UTC. Time now 2018-Jul-17 17:20 UTC.
Position N 47°40' W 122°23'.

Length 26 m; draft 1 m.

Type: Passenger vessel. MMSI: 366902890.

Date/timePositionNaut miles runAvg speedWind from/ knotsBaromVisibWave heightAir tempDewpointWater temp
2018-Jul-16 19:00N 47°40' W 122°23'0 0.5
2018-Jul-16 18:29N 47°40' W 122°24'0 0.1
2018-Jul-16 17:59N 47°40' W 122°24'2 4.0
2018-Jul-16 17:30N 47°40' W 122°27'5 9.5
2018-Jul-16 17:00N 47°37' W 122°21'0 0.0
2018-Jul-16 16:30N 47°37' W 122°21'0 0.0
2018-Jul-16 16:00N 47°37' W 122°21'0 0.0
2018-Jul-16 15:30N 47°37' W 122°21'0 0.0
2018-Jul-16 08:40N 47°37' W 122°21'0 0.2
2018-Jul-16 08:29N 47°37' W 122°21'0 0.2
2018-Jul-16 08:00N 47°37' W 122°21'5 9.3
2018-Jul-16 07:30N 47°40' W 122°27'611.5
2018-Jul-16 07:00N 47°45' W 122°27'611.6
2018-Jul-16 06:30N 47°51' W 122°29'510.6
2018-Jul-16 06:00N 47°56' W 122°33'2910.9
2018-Jul-16 03:19N 48°21' W 122°54'412.6
2018-Jul-16 03:00N 48°25' W 122°56'510.4
2018-Jul-16 02:30N 48°30' W 122°57'3 6.2
2018-Jul-16 02:00N 48°32' W 123°01'0 0.0
2018-Jul-16 01:30N 48°32' W 123°01'0 0.1
2018-Jul-16 00:57N 48°32' W 123°01'2 5.0
2018-Jul-16 00:31N 48°32' W 122°58'2 3.7
2018-Jul-15 23:55N 48°32' W 123°01'0 0.0
2018-Jul-15 23:25N 48°32' W 123°01'0 0.0
2018-Jul-15 22:49N 48°32' W 123°01'0 0.0
2018-Jul-15 22:25N 48°32' W 123°01'0 0.0
2018-Jul-15 21:58N 48°32' W 123°01'4 8.6
2018-Jul-15 21:30N 48°36' W 123°04'816.4
2018-Jul-15 21:00N 48°40' W 123°14'3 5.6
2018-Jul-15 20:30N 48°38' W 123°12'3 6.3
2018-Jul-15 20:00N 48°38' W 123°08'714.1
2018-Jul-15 19:30N 48°32' W 123°01'1 1.5
2018-Jul-15 19:00N 48°33' W 122°60'917.9
2018-Jul-15 18:30N 48°25' W 122°53'2715.4
2018-Jul-15 16:47N 48°05' W 122°27'721.4
2018-Jul-15 16:28N 47°60' W 122°21'1021.3
2018-Jul-15 16:01N 47°50' W 122°24'1123.0
2018-Jul-15 15:31N 47°39' W 122°26'4 7.4
2018-Jul-15 14:58N 47°37' W 122°21'0 0.0
2018-Jul-15 14:25N 47°37' W 122°21'0 0.0
2018-Jul-15 13:58N 47°37' W 122°21'0 0.0
2018-Jul-15 04:06N 47°37' W 122°21'0 1.2
2018-Jul-15 04:00N 47°37' W 122°21'1 1.8
2018-Jul-15 03:31N 47°36' W 122°21'1 2.1
2018-Jul-15 03:01N 47°37' W 122°22'1121.2
2018-Jul-15 02:30N 47°47' W 122°27'1020.7
2018-Jul-15 02:00N 47°56' W 122°33'2323.8
2018-Jul-15 01:02N 48°18' W 122°48'222.1
2018-Jul-15 00:57N 48°19' W 122°49'1022.1
2018-Jul-15 00:30N 48°27' W 122°57'611.2
2018-Jul-15 00:00N 48°32' W 123°01'0 0.0
2018-Jul-14 23:30N 48°32' W 123°01'0 0.0
2018-Jul-14 23:00N 48°32' W 123°01'0 0.0
2018-Jul-14 22:30N 48°32' W 123°01'0 0.0
2018-Jul-14 21:45N 48°32' W 123°01'2 8.3
2018-Jul-14 21:30N 48°32' W 122°58'813.8
2018-Jul-14 20:58N 48°25' W 123°01'1 1.6
2018-Jul-14 20:30N 48°25' W 123°02'815.8
2018-Jul-14 20:01N 48°33' W 122°60'1 1.0
2018-Jul-14 19:30N 48°33' W 123°00'816.6
2018-Jul-14 19:00N 48°25' W 122°54'2912.3
2018-Jul-14 16:40N 48°04' W 122°25'420.8
2018-Jul-14 16:28N 48°01' W 122°21'1020.9
2018-Jul-14 16:01N 47°51' W 122°23'1223.1
2018-Jul-14 15:31N 47°40' W 122°27'5 9.3
2018-Jul-14 14:59N 47°37' W 122°21'0 0.0
2018-Jul-14 14:26N 47°37' W 122°21'2 1.6
2018-Jul-14 13:29N 47°35' W 122°21'2 0.1
2018-Jul-14 03:12N 47°37' W 122°21'0 0.0
2018-Jul-14 03:00N 47°37' W 122°21'815.9
2018-Jul-14 02:31N 47°44' W 122°27'1224.0
2018-Jul-14 02:01N 47°55' W 122°31'2823.6
2018-Jul-14 00:49N 48°20' W 122°50'824.1
2018-Jul-14 00:31N 48°26' W 122°57'711.4
2018-Jul-13 23:56N 48°32' W 123°01'0 0.0
2018-Jul-13 23:29N 48°32' W 123°01'0 0.0
2018-Jul-13 22:59N 48°32' W 123°01'0 0.0
2018-Jul-13 22:29N 48°32' W 123°01'0 0.0
2018-Jul-13 21:59N 48°32' W 123°01'1 1.5
2018-Jul-13 21:31N 48°33' W 123°00'816.3
2018-Jul-13 21:00N 48°25' W 123°02'1 2.6
2018-Jul-13 20:30N 48°25' W 123°00'2 4.7
2018-Jul-13 20:00N 48°26' W 122°57'612.2
2018-Jul-13 19:30N 48°32' W 123°01'1 2.8
2018-Jul-13 19:00N 48°33' W 122°59'917.1
2018-Jul-13 18:30N 48°31' W 122°46'2917.2
2018-Jul-13 16:48N 48°05' W 122°26'719.7
2018-Jul-13 16:28N 47°59' W 122°20'920.8
2018-Jul-13 16:00N 47°50' W 122°24'1223.3
2018-Jul-13 15:30N 47°39' W 122°26'4 7.8
2018-Jul-13 14:59N 47°37' W 122°21'0 0.0
2018-Jul-13 14:29N 47°37' W 122°21'1 1.4
2018-Jul-13 13:30N 47°35' W 122°21'1 0.1
2018-Jul-13 03:20N 47°37' W 122°21'0 0.7
2018-Jul-13 03:00N 47°37' W 122°22'1020.1
2018-Jul-13 02:30N 47°46' W 122°27'1424.5
2018-Jul-13 01:56N 47°59' W 122°36'2423.9
2018-Jul-13 00:56N 48°20' W 122°51'714.2
2018-Jul-13 00:28N 48°25' W 122°58'816.3
2018-Jul-13 00:00N 48°32' W 123°01'0 0.2
2018-Jul-12 23:29N 48°32' W 123°01'0 0.0
2018-Jul-12 22:26N 48°32' W 123°01'0 0.0
2018-Jul-12 21:59N 48°32' W 123°01'1 3.1
2018-Jul-12 21:30N 48°33' W 122°59'712.9
2018-Jul-12 20:59N 48°26' W 122°58'3 5.4
2018-Jul-12 20:30N 48°26' W 123°02'4 7.9
2018-Jul-12 20:00N 48°28' W 122°57'4 8.1
2018-Jul-12 19:28N 48°32' W 123°01'4 8.6
2018-Jul-12 19:00N 48°33' W 122°55'816.1
2018-Jul-12 18:30N 48°29' W 122°45'2817.0
2018-Jul-12 16:51N 48°04' W 122°25'720.5
2018-Jul-12 16:30N 47°58' W 122°20'917.4
2018-Jul-12 16:00N 47°50' W 122°24'1122.9
2018-Jul-12 15:30N 47°39' W 122°27'4 7.6
2018-Jul-12 14:59N 47°37' W 122°21'0 0.0
2018-Jul-12 14:29N 47°37' W 122°21'2 3.1
2018-Jul-12 14:00N 47°35' W 122°21'1 2.6
2018-Jul-12 13:30N 47°37' W 122°21'0 0.0
2018-Jul-12 03:35N 47°37' W 122°21'0 0.0
2018-Jul-12 03:29N 47°37' W 122°21'4 8.7
2018-Jul-12 03:00N 47°39' W 122°27'1223.8
2018-Jul-12 02:30N 47°51' W 122°28'3420.1
2018-Jul-12 00:49N 48°21' W 122°50'722.3
2018-Jul-12 00:30N 48°27' W 122°57'610.6
2018-Jul-11 23:56N 48°32' W 123°01'0 0.0
2018-Jul-11 23:29N 48°32' W 123°01'0 0.0
2018-Jul-11 22:59N 48°32' W 123°01'0 0.0
2018-Jul-11 22:29N 48°32' W 123°01'0 0.0
2018-Jul-11 21:59N 48°32' W 123°01'1 2.9
2018-Jul-11 21:30N 48°33' W 122°59'9 7.4
2018-Jul-11 20:19N 48°24' W 122°59'412.8
2018-Jul-11 20:00N 48°28' W 122°57'5 9.9
2018-Jul-11 19:29N 48°32' W 123°01'511.5
2018-Jul-11 19:01N 48°34' W 122°53'1019.8
2018-Jul-11 18:31N 48°27' W 122°43'2517.6
2018-Jul-11 17:06N 48°05' W 122°26'422.1
2018-Jul-11 16:54N 48°02' W 122°22'718.5
2018-Jul-11 16:30N 47°55' W 122°22'5 9.9
2018-Jul-11 16:00N 47°50' W 122°24'1223.0
2018-Jul-11 15:30N 47°38' W 122°26'4 7.1
2018-Jul-11 15:00N 47°37' W 122°21'0 0.4
2018-Jul-11 14:28N 47°37' W 122°21'1 2.7
2018-Jul-11 13:58N 47°35' W 122°21'1 3.2
2018-Jul-11 13:30N 47°37' W 122°21'0 0.0
2018-Jul-11 03:24N 47°37' W 122°21'2 4.6
2018-Jul-11 03:00N 47°37' W 122°24'1121.9
2018-Jul-11 02:30N 47°48' W 122°27'3420.4
2018-Jul-11 00:50N 48°19' W 122°49'719.8
2018-Jul-11 00:30N 48°24' W 122°55'917.6
2018-Jul-11 00:00N 48°32' W 123°01'0 0.2
2018-Jul-10 23:26N 48°32' W 123°01'0 0.0
2018-Jul-10 22:59N 48°32' W 123°01'0 0.0
2018-Jul-10 22:26N 48°32' W 123°01'0 0.0
2018-Jul-10 21:56N 48°32' W 123°01'615.0
2018-Jul-10 21:30N 48°38' W 123°06'713.0
2018-Jul-10 21:00N 48°39' W 123°16'3 5.8
2018-Jul-10 20:31N 48°37' W 123°14'1325.0
2018-Jul-10 20:00N 48°27' W 123°02'612.0
2018-Jul-10 19:30N 48°32' W 122°58'2 3.9
2018-Jul-10 19:00N 48°32' W 123°01'714.4
2018-Jul-10 18:30N 48°33' W 122°50'3218.2
2018-Jul-10 16:44N 48°05' W 122°26'722.8
2018-Jul-10 16:27N 47°59' W 122°20'921.0
2018-Jul-10 16:00N 47°50' W 122°24'1223.5
2018-Jul-10 15:30N 47°39' W 122°27'4 8.0
2018-Jul-10 15:00N 47°37' W 122°21'0 0.0
2018-Jul-10 14:30N 47°37' W 122°21'2 3.1
2018-Jul-10 14:00N 47°35' W 122°21'1 3.0
2018-Jul-10 13:31N 47°37' W 122°21'0 0.0
2018-Jul-10 04:08N 47°37' W 122°21'0 0.0
2018-Jul-10 03:59N 47°37' W 122°21'4 7.9
2018-Jul-10 03:30N 47°39' W 122°26'1223.9
2018-Jul-10 03:01N 47°50' W 122°22'815.6
2018-Jul-10 02:31N 47°58' W 122°20'3019.5
2018-Jul-10 00:59N 48°25' W 122°40'919.8
2018-Jul-10 00:30N 48°32' W 122°50'710.6
2018-Jul-09 23:50N 48°32' W 123°01'0 0.0
2018-Jul-09 23:29N 48°32' W 123°01'0 0.0
2018-Jul-09 22:56N 48°32' W 123°01'0 0.0
2018-Jul-09 22:29N 48°32' W 123°01'3 6.2
2018-Jul-09 22:00N 48°35' W 123°02'1121.8
2018-Jul-09 21:31N 48°42' W 123°15'3 5.9
2018-Jul-09 21:00N 48°44' W 123°11'3 5.2
2018-Jul-09 20:31N 48°41' W 123°09'3 5.9
2018-Jul-09 20:01N 48°39' W 123°09'816.6
2018-Jul-09 19:31N 48°33' W 123°00'1 1.0
2018-Jul-09 19:00N 48°32' W 123°01'715.0
2018-Jul-09 18:31N 48°32' W 122°50'3217.1
2018-Jul-09 16:40N 48°05' W 122°26'621.7
2018-Jul-09 16:24N 48°00' W 122°21'822.1
2018-Jul-09 16:00N 47°52' W 122°24'1224.0
2018-Jul-09 15:31N 47°40' W 122°27'510.0
2018-Jul-09 15:00N 47°37' W 122°21'0 0.0
2018-Jul-09 14:30N 47°37' W 122°21'0 0.4
2018-Jul-09 14:01N 47°37' W 122°21'1 2.3
2018-Jul-09 13:30N 47°36' W 122°21'1 0.1
2018-Jul-09 03:20N 47°37' W 122°21'2 6.4
2018-Jul-09 03:00N 47°37' W 122°24'1121.2
2018-Jul-09 02:31N 47°48' W 122°27'1322.8
2018-Jul-09 01:58N 47°59' W 122°36'2122.2
2018-Jul-09 01:01N 48°18' W 122°49'023.6
2018-Jul-09 00:59N 48°18' W 122°49'1019.8
2018-Jul-09 00:30N 48°26' W 122°57'612.3
2018-Jul-09 00:00N 48°32' W 123°01'0 0.0
2018-Jul-08 23:30N 48°32' W 123°01'613.3
2018-Jul-08 23:00N 48°39' W 123°02'10 9.1
2018-Jul-08 21:52N 48°49' W 123°02'821.6
2018-Jul-08 21:30N 48°41' W 123°00'917.4
2018-Jul-08 21:00N 48°32' W 123°01'0 0.0
2018-Jul-08 20:30N 48°32' W 123°01'0 0.0
2018-Jul-08 20:00N 48°32' W 123°01'0 0.0
2018-Jul-08 19:30N 48°32' W 123°01'0 0.0
2018-Jul-08 18:58N 48°32' W 123°01'714.5
2018-Jul-08 18:31N 48°34' W 122°51'3318.7
2018-Jul-08 16:43N 48°05' W 122°26'722.5
2018-Jul-08 16:26N 47°60' W 122°21'922.3
2018-Jul-08 16:01N 47°51' W 122°25'1223.5
2018-Jul-08 15:31N 47°39' W 122°27'4 6.2
2018-Jul-08 14:50N 47°37' W 122°21'0 0.0
2018-Jul-08 14:26N 47°37' W 122°21'0 0.0
2018-Jul-08 13:56N 47°37' W 122°21'0 0.0
2018-Jul-08 03:59N 47°37' W 122°21'2 3.2
2018-Jul-08 03:30N 47°35' W 122°21'2 2.9
2018-Jul-08 02:58N 47°37' W 122°21'816.3
2018-Jul-08 02:31N 47°43' W 122°28'1224.0
2018-Jul-08 02:01N 47°55' W 122°31'2723.2
2018-Jul-08 00:51N 48°19' W 122°49'823.7
2018-Jul-08 00:30N 48°25' W 122°56'812.2
2018-Jul-07 23:53N 48°32' W 123°01'0 0.0
2018-Jul-07 23:29N 48°32' W 123°01'0 0.0
2018-Jul-07 22:59N 48°32' W 123°01'0 0.0
2018-Jul-07 22:29N 48°32' W 123°01'0 0.0
2018-Jul-07 21:59N 48°32' W 123°01'0 1.0
2018-Jul-07 21:31N 48°33' W 123°01'1122.7
2018-Jul-07 21:00N 48°42' W 123°11'4 7.6
2018-Jul-07 20:30N 48°44' W 123°15'2 3.4
2018-Jul-07 20:00N 48°45' W 123°18'1223.3
2018-Jul-07 19:30N 48°37' W 123°05'510.6
2018-Jul-07 19:00N 48°32' W 123°01'510.9
2018-Jul-07 18:31N 48°34' W 122°54'1121.0
2018-Jul-07 17:59N 48°26' W 122°42'2418.0
2018-Jul-07 16:39N 48°05' W 122°26'623.9
2018-Jul-07 16:25N 48°01' W 122°21'923.0
2018-Jul-07 16:00N 47°51' W 122°23'1224.1
2018-Jul-07 15:31N 47°39' W 122°27'5 8.8
2018-Jul-07 15:00N 47°37' W 122°21'0 0.5
2018-Jul-07 14:30N 47°37' W 122°22'1 2.9
2018-Jul-07 14:00N 47°35' W 122°21'2 2.8
2018-Jul-07 13:28N 47°37' W 122°21'0 0.0
2018-Jul-07 03:22N 47°37' W 122°21'1 2.5
2018-Jul-07 03:00N 47°37' W 122°23'918.5
2018-Jul-07 02:30N 47°46' W 122°27'1122.6
2018-Jul-07 02:00N 47°56' W 122°33'2422.2
2018-Jul-07 00:55N 48°18' W 122°49'921.7
2018-Jul-07 00:30N 48°26' W 122°56'815.1
2018-Jul-07 00:00N 48°32' W 123°01'0 0.3
2018-Jul-06 23:30N 48°32' W 123°01'0 0.0
2018-Jul-06 23:01N 48°32' W 123°01'0 0.0
2018-Jul-06 22:30N 48°32' W 123°01'0 0.0
2018-Jul-06 21:55N 48°32' W 123°01'1 3.4
2018-Jul-06 21:30N 48°34' W 123°00'1222.3
2018-Jul-06 20:59N 48°45' W 123°04'3 3.0
2018-Jul-06 20:07N 48°47' W 123°02'217.1
2018-Jul-06 19:59N 48°45' W 123°03'1122.2
2018-Jul-06 19:30N 48°35' W 123°01'3 5.1
2018-Jul-06 19:00N 48°32' W 123°01'  

Dump ship's entire track history